Latest Weather Observations for Condobolin Airport

IDN60801

Issued at 3:33 pm EDT Saturday 29 February 2020 (issued every 10 minutes, with the page automatically refreshed every 10 minutes)

About weather observations | Map of weather stations | Latest weather observations for NSW | Other Formats
Station Details ID: 050137 Name: CONDOBOLIN AIRPORT AWS Lat: -33.07 Lon: 147.21 Height: 192.6 m
Data from the previous 72 hours. | See also: Recent months at Condobolin Airport
Date/Time
EDT
Temp
°C
App
Temp
°C
Dew
Point
°C
Rel
Hum
%
Delta-T
°C
Wind Press
QNH
hPa
Press
MSL
hPa
Rain since
9am
mm
Dir  Spd
km/h
Gust
km/h
Spd
kts
Gust
kts
29/03:30pm 30.4 28.8 8.7 26 12.1 S 7 13 4 7 1012.3 1011.3 0.0
29/03:00pm 30.3 28.3 8.7 26 12.1 SW 9 15 5 8 1012.9 1011.9 0.0
29/02:30pm 29.5 27.9 8.0 26 11.8 SSE 6 13 3 7 1013.1 1012.1 0.0
29/02:00pm 29.5 28.3 9.6 29 11.2 WNW 6 13 3 7 1013.5 1012.5 0.0
29/01:30pm 27.9 25.5 8.7 30 10.6 N 11 20 6 11 1013.9 1012.9 0.0
29/01:00pm 28.2 27.2 10.4 33 10.1 N 6 11 3 6 1014.4 1013.3 0.0
29/12:30pm 27.5 26.8 10.2 34 9.8 NNW 4 11 2 6 1014.9 1013.8 0.0
29/12:00pm 26.5 25.0 10.6 37 9.0 NNE 9 24 5 13 1015.3 1014.2 0.0
29/11:30am 26.1 24.3 10.7 38 8.7 NNE 11 20 6 11 1015.6 1014.5 0.0
29/11:00am 25.3 23.8 11.8 43 7.7 ENE 11 17 6 9 1015.8 1014.7 0.0
29/10:30am 24.7 22.7 12.6 47 7.0 ENE 15 19 8 10 1016.0 1014.9 0.0
29/10:00am 24.0 23.2 12.9 50 6.4 ENE 9 20 5 11 1016.0 1014.9 0.0
29/09:30am 22.1 21.5 11.8 52 5.8 NE 6 9 3 5 1016.2 1015.1 0.0
29/09:00am 20.3 20.3 9.8 51 5.7 CALM 0 0 0 0 1016.2 1015.1 0.0
29/08:30am 18.9 18.7 9.1 53 5.2 CALM 0 0 0 0 1016.2 1015.1 0.0
29/08:00am 16.5 16.3 9.0 61 3.9 CALM 0 0 0 0 1016.1 1015.0 0.0
29/07:30am 15.0 14.8 8.9 67 3.1 CALM 0 0 0 0 1015.9 1014.8 0.0
29/07:00am 14.1 13.6 7.9 66 3.1 CALM 0 0 0 0 1015.2 1014.1 0.0
29/06:30am 14.9 14.4 7.9 63 3.5 CALM 0 0 0 0 1014.9 1013.8 0.0
29/06:00am 14.9 13.2 8.4 65 3.3 NNE 7 9 4 5 1014.7 1013.6 0.0
29/05:30am 15.1 13.6 8.6 65 3.3 WSW 6 7 3 4 1014.4 1013.3 0.0
29/05:00am 15.1 13.0 8.3 64 3.5 SSW 9 11 5 6 1014.2 1013.1 0.0
29/04:30am 15.6 14.4 7.9 60 3.9 E 4 7 2 4 1014.3 1013.2 0.0
29/04:00am 15.1 13.0 8.3 64 3.5 ENE 9 13 5 7 1014.4 1013.3 0.0
29/03:30am 15.6 15.2 8.1 61 3.8 CALM 0 0 0 0 1014.3 1013.2 0.0
29/03:00am 15.9 15.5 8.2 60 3.9 CALM 0 0 0 0 1014.3 1013.2 0.0
29/02:30am 16.5 16.2 8.5 59 4.1 CALM 0 0 0 0 1014.3 1013.2 0.0
29/02:00am 17.5 16.9 7.5 52 5.1 CALM 0 0 0 0 1014.3 1013.2 0.0
29/01:30am 17.8 17.2 7.2 50 5.4 CALM 0 0 0 0 1014.5 1013.4 0.0
29/01:00am 18.3 17.8 7.7 50 5.4 CALM 0 0 0 0 1014.5 1013.4 0.0
29/12:30am 18.8 16.9 7.6 48 5.8 WSW 7 9 4 5 1014.3 1013.2 0.0
29/12:00am 19.9 18.1 7.3 44 6.5 SW 6 7 3 4 1014.2 1013.1 0.0
 
Date/Time
EDT
Temp
°C
App
Temp
°C
Dew
Point
°C
Rel
Hum
%
Delta-T
°C
Wind Press
QNH
hPa
Press
MSL
hPa
Rain since
9am
mm
Dir  Spd
km/h
Gust
km/h
Spd
kts
Gust
kts
28/11:30pm 19.6 17.7 7.7 46 6.2 SW 7 11 4 6 1013.9 1012.9 0.0
28/11:00pm 20.0 17.8 8.0 46 6.3 SW 9 11 5 6 1014.1 1013.0 0.0
28/10:30pm 20.9 18.9 7.2 41 7.1 SW 7 9 4 5 1014.1 1013.0 0.0
28/10:00pm 22.2 19.3 6.4 36 8.1 SSW 11 13 6 7 1013.8 1012.8 0.0
28/09:30pm 22.0 19.2 7.0 38 7.8 SSW 11 13 6 7 1013.4 1012.4 0.0
28/09:00pm 22.9 20.0 6.6 35 8.4 SSW 11 11 6 6 1012.9 1011.9 0.0
28/08:30pm 23.3 20.4 6.6 34 8.7 SW 11 13 6 7 1012.6 1011.6 0.0
28/08:00pm 24.8 21.4 6.1 30 9.7 SSW 13 15 7 8 1012.2 1011.1 0.0
28/07:30pm 26.0 22.3 6.1 28 10.4 SSW 15 20 8 11 1011.8 1010.7 0.0
28/07:00pm 26.9 22.7 5.8 26 11.0 SSW 17 24 9 13 1011.6 1010.5 0.0
28/06:30pm 27.3 22.7 5.6 25 11.3 SSW 19 26 10 14 1011.4 1010.3 0.0
28/06:00pm 27.4 22.6 5.6 25 11.4 SSW 20 32 11 17 1011.1 1010.0 0.0
28/05:30pm 27.5 22.6 5.1 24 11.6 SSW 20 32 11 17 1011.2 1010.1 0.0
28/05:00pm 27.4 22.8 5.6 25 11.4 SSW 19 30 10 16 1011.2 1010.1 0.0
28/04:30pm 27.2 22.4 4.9 24 11.5 SSW 19 30 10 16 1011.3 1010.2 0.0
28/04:00pm 26.9 22.5 4.6 24 11.4 SSW 17 28 9 15 1011.7 1010.6 0.0
28/03:30pm 27.3 23.7 6.7 27 11.0 S 15 28 8 15 1011.9 1010.8 0.0
28/03:00pm 26.5 21.9 6.5 28 10.6 SW 20 30 11 16 1012.2 1011.1 0.0
28/02:30pm 25.2 21.3 5.4 28 10.2 SSW 15 26 8 14 1012.6 1011.6 0.0
28/02:00pm 25.3 21.1 5.5 28 10.2 S 17 28 9 15 1012.9 1011.9 0.0
28/01:30pm 24.5 20.3 5.8 30 9.6 SSW 17 28 9 15 1013.2 1012.2 0.0
28/01:00pm 24.0 18.4 5.4 30 9.5 SSW 24 35 13 19 1013.7 1012.7 0.0
28/12:30pm 23.3 18.2 6.1 33 8.8 SW 22 37 12 20 1014.2 1013.1 0.0
28/12:00pm 23.0 18.0 6.3 34 8.6 SSW 22 32 12 17 1014.6 1013.5 0.0
28/11:30am 22.1 17.0 5.9 35 8.2 SSW 22 35 12 19 1014.7 1013.6 0.0
28/11:00am 20.7 15.2 5.9 38 7.4 SSW 24 32 13 17 1014.8 1013.7 0.0
28/10:30am 20.9 16.8 6.4 39 7.4 S 17 24 9 13 1014.8 1013.7 0.0
28/10:00am 20.1 15.5 6.5 41 6.9 SSW 20 26 11 14 1014.8 1013.7 0.0
28/09:30am 18.7 14.2 6.2 44 6.2 SSW 19 24 10 13 1014.5 1013.4 0.0
28/09:00am 17.8 13.3 6.0 46 5.8 SW 19 24 10 13 1014.2 1013.1 0.0
28/08:30am 17.0 12.8 5.9 48 5.4 SW 17 22 9 12 1013.7 1012.7 0.0
28/08:00am 15.9 12.3 5.2 49 5.1 SSW 13 17 7 9 1013.4 1012.4 0.0
28/07:30am 14.5 11.6 4.8 52 4.6 SW 9 11 5 6 1013.1 1012.1 0.0
28/07:00am 13.9 10.5 4.2 52 4.5 SW 11 13 6 7 1012.7 1011.7 0.0
28/06:30am 13.7 10.2 3.5 50 4.6 SW 11 13 6 7 1012.4 1011.4 0.0
28/06:00am 13.7 10.5 2.9 48 4.9 SW 9 11 5 6 1012.0 1010.9 0.0
28/05:30am 13.3 10.2 3.4 51 4.5 WSW 9 11 5 6 1011.9 1010.8 0.0
28/05:00am 13.1 10.3 3.2 51 4.5 WSW 7 9 4 5 1011.7 1010.6 0.0
28/04:30am 14.6 13.0 2.2 43 5.5 CALM 0 0 0 0 1011.8 1010.7 0.0
28/04:00am 14.6 11.3 2.2 43 5.5 SW 9 11 5 6 1011.8 1010.7 0.0
28/03:30am 15.0 11.7 2.2 42 5.7 SW 9 11 5 6 1011.8 1010.7 0.0
28/03:00am 15.5 11.7 1.6 39 6.2 SW 11 13 6 7 1011.7 1010.6 0.0
28/02:30am 15.9 12.1 2.0 39 6.2 SW 11 11 6 6 1011.6 1010.5 0.0
28/02:00am 15.8 12.1 2.6 41 6.0 SW 11 11 6 6 1011.7 1010.6 0.0
28/01:30am 15.6 12.5 3.4 44 5.6 WSW 9 11 5 6 1011.7 1010.6 0.0
28/01:00am 16.5 13.2 2.2 38 6.5 WSW 9 9 5 5 1011.8 1010.7 0.0
28/12:30am 17.1 13.6 1.5 35 7.0 SW 9 13 5 7 1011.8 1010.7 0.0
28/12:00am 18.1 15.0 1.2 32 7.6 SSW 7 9 4 5 1011.9 1010.8 0.0
 
Date/Time
EDT
Temp
°C
App
Temp
°C
Dew
Point
°C
Rel
Hum
%
Delta-T
°C
Wind Press
QNH
hPa
Press
MSL
hPa
Rain since
9am
mm
Dir  Spd
km/h
Gust
km/h
Spd
kts
Gust
kts
27/11:30pm 18.0 14.5 1.5 33 7.5 SSW 9 13 5 7 1012.0 1010.9 0.0
27/11:00pm 18.9 14.7 1.4 31 8.0 SSW 13 15 7 8 1011.8 1010.7 0.0
27/10:30pm 19.3 15.3 0.8 29 8.3 SW 11 15 6 8 1011.8 1010.7 0.0
27/10:00pm 20.1 15.7 0.5 27 8.8 SSW 13 15 7 8 1011.5 1010.4 0.0
27/09:30pm 20.7 16.8 1.1 27 9.0 SSW 11 13 6 7 1011.1 1010.0 0.0
27/09:00pm 22.2 17.5 0.7 24 9.9 SSW 15 19 8 10 1010.7 1009.6 0.0
27/08:30pm 22.3 18.0 1.3 25 9.8 SSW 13 17 7 9 1010.1 1009.0 0.0
27/08:00pm 23.6 18.5 0.7 22 10.7 SSW 17 20 9 11 1009.5 1008.4 0.0
27/07:30pm 25.1 19.6 0.6 20 11.5 SSW 19 26 10 14 1009.2 1008.1 0.0
27/07:00pm 25.9 19.8 0.5 19 12.0 SSW 22 30 12 16 1009.1 1008.0 0.0
27/06:30pm 26.4 20.4 0.9 19 12.2 SSW 22 28 12 15 1009.0 1007.9 0.0
27/06:00pm 26.4 20.9 0.9 19 12.2 WSW 19 26 10 14 1008.9 1007.8 0.0
27/05:30pm 26.3 20.5 0.1 18 12.3 SW 20 35 11 19 1008.8 1007.7 0.0
27/05:00pm 26.7 21.2 0.4 18 12.5 SW 19 32 10 17 1008.8 1007.7 0.0
27/04:30pm 26.3 20.7 0.9 19 12.1 SW 20 30 11 16 1008.9 1007.8 0.0
27/04:00pm 26.6 22.0 1.8 20 12.1 S 15 26 8 14 1009.2 1008.1 0.0
27/03:30pm 26.4 21.5 1.7 20 12.0 SW 17 30 9 16 1009.6 1008.5 0.0
27/03:00pm 26.3 22.2 2.3 21 11.8 SSW 13 28 7 15 1010.0 1008.9 0.0
27/02:30pm 25.6 21.7 3.6 24 11.0 SSW 13 26 7 14 1010.5 1009.4 0.0
27/02:00pm 25.1 20.6 1.9 22 11.2 SW 15 30 8 16 1010.9 1009.8 0.0
27/01:30pm 24.8 19.6 2.3 23 10.9 SSW 19 32 10 17 1011.2 1010.1 0.0
27/01:00pm 24.5 20.3 3.8 26 10.3 SW 15 24 8 13 1011.6 1010.5 0.0
27/12:30pm 24.0 19.2 2.8 25 10.3 SSW 17 32 9 17 1012.1 1011.0 0.0
27/12:00pm 23.8 18.9 4.2 28 9.8 SW 19 32 10 17 1012.5 1011.5 0.0
27/11:30am 23.1 19.2 3.6 28 9.6 SSW 13 28 7 15 1012.4 1011.4 0.0
27/11:00am 22.1 18.2 3.3 29 9.1 S 13 20 7 11 1012.6 1011.6 0.0
27/10:30am 21.7 18.7 3.9 31 8.7 SSE 9 15 5 8 1012.6 1011.6 0.0
27/10:00am 21.0 17.2 4.1 33 8.2 SSE 13 17 7 9 1012.7 1011.7 0.0
27/09:30am 20.5 17.2 4.5 35 7.8 SE 11 17 6 9 1012.7 1011.7 0.0
27/09:00am 18.7 15.6 5.5 42 6.5 SE 11 15 6 8 1012.6 1011.6 0.0
27/08:30am 18.0 15.4 5.9 45 6.0 SE 9 11 5 6 1012.4 1011.4 0.0
27/08:00am 16.8 16.2 7.2 53 4.8 CALM 0 0 0 0 1012.3 1011.3 0.0
27/07:30am 14.6 13.9 6.9 60 3.8 CALM 0 0 0 0 1012.1 1011.0 0.0
27/07:00am 14.6 13.6 7.2 61 3.7 S 2 7 1 4 1011.8 1010.7 0.0
27/06:30am 15.2 13.5 7.5 60 3.9 S 6 7 3 4 1011.5 1010.4 0.0
27/06:00am 14.7 14.2 7.7 63 3.5 CALM 0 0 0 0 1011.0 1009.9 0.0
27/05:30am 14.9 14.4 7.7 62 3.6 CALM 0 0 0 0 1010.8 1009.7 0.0
27/05:00am 15.7 14.8 7.7 59 4.0 ENE 2 7 1 4 1010.7 1009.6 0.0
27/04:30am 16.9 15.9 7.3 53 4.8 SSE 2 7 1 4 1010.7 1009.6 0.0
27/04:00am 17.4 15.4 7.2 51 5.2 SSE 7 9 4 5 1010.5 1009.4 0.0
27/03:30am 18.1 15.8 7.5 50 5.4 S 9 11 5 6 1010.6 1009.5 0.0
27/03:00am 18.7 16.6 8.1 50 5.5 S 9 13 5 7 1010.4 1009.3 0.0
27/02:30am 18.4 16.7 8.4 52 5.2 SSW 7 9 4 5 1010.4 1009.3 0.0
27/02:00am 19.7 16.9 8.4 48 5.9 SSW 13 17 7 9 1010.4 1009.3 0.0
27/01:30am 19.8 17.1 8.8 49 5.8 SSW 13 17 7 9 1010.4 1009.3 0.0
27/01:00am 20.3 17.6 8.9 48 6.1 WSW 13 15 7 8 1010.5 1009.4 0.0
27/12:30am 20.3 18.1 9.2 49 5.9 WSW 11 11 6 6 1010.5 1009.4 0.0
27/12:00am 20.7 18.5 9.3 48 6.1 WSW 11 13 6 7 1010.4 1009.3 0.0
 
Date/Time
EDT
Temp
°C
App
Temp
°C
Dew
Point
°C
Rel
Hum
%
Delta-T
°C
Wind Press
QNH
hPa
Press
MSL
hPa
Rain since
9am
mm
Dir  Spd
km/h
Gust
km/h
Spd
kts
Gust
kts
26/11:30pm 21.6 20.0 8.8 44 6.8 WSW 7 9 4 5 1010.3 1009.2 0.0
26/11:00pm 22.6 19.5 8.7 41 7.5 SW 15 20 8 11 1010.2 1009.1 0.0
26/10:30pm 22.2 19.7 8.3 41 7.4 SW 11 13 6 7 1010.0 1008.9 0.0
26/10:00pm 22.5 19.8 7.5 38 7.9 SW 11 13 6 7 1009.9 1008.8 0.0
26/09:30pm 23.4 20.3 7.1 35 8.5 SSW 13 17 7 9 1009.7 1008.6 0.0
26/09:00pm 24.8 21.1 6.5 31 9.6 SSW 15 22 8 12 1009.6 1008.5 0.0
26/08:30pm 25.4 21.2 5.6 28 10.2 SSW 17 24 9 13 1009.1 1008.0 0.0
26/08:00pm 26.2 20.4 4.6 25 11.0 SSW 24 32 13 17 1008.4 1007.4 0.0
26/07:30pm 27.2 21.4 4.3 23 11.7 SW 24 35 13 19 1007.8 1006.8 0.0
26/07:00pm 28.4 21.6 3.3 20 12.7 SW 28 39 15 21 1007.3 1006.2 0.0
26/06:30pm 29.2 22.8 5.3 22 12.5 SW 28 39 15 21 1006.9 1005.8 0.0
26/06:00pm 29.8 22.3 4.4 20 13.2 WSW 33 46 18 25 1006.7 1005.6 0.0
26/05:30pm 30.1 22.9 6.1 22 12.8 WSW 33 41 18 22 1006.4 1005.3 0.0
26/05:00pm 30.2 23.4 6.8 23 12.7 WSW 32 43 17 23 1006.4 1005.3 0.0
26/04:30pm 30.2 22.7 6.1 22 12.9 WSW 35 50 19 27 1006.6 1005.5 0.0
26/04:00pm 31.0 22.7 6.1 21 13.4 WSW 39 54 21 29 1006.8 1005.7 0.0

Other formats

Comma delimited format used in spreadsheet applications
http://www.bom.gov.au/fwo/IDN60801/IDN60801.95708.axf

JavaScript Object Notation format (JSON) in row-major order
http://www.bom.gov.au/fwo/IDN60801/IDN60801.95708.json

Data quality

Most of these data are generated automatically and are frequently updated. Quality checks on data are not normally performed. It is possible for incorrect values to appear. Refer to information at About Latest Weather Observations and please check the disclaimer before using these data.